Time;durP1;ratioP1;P1;durP2;ratioP2;P2;SDS_P1;SDS_P2;PMS_P1;PMS_P2;Temp;Humidity;BMP_temperature;BMP_pressure;BME280_temperature;BME280_humidity;BME280_pressure;Samples;Min_cycle;Max_cycle;Signal;HPM_P1;HPM_P2
2022/07/11 00:02:08;;;;;;;4.45;2.60;;;21.10;64.40;;;;;;5054693;28;20032;-17
2022/07/11 00:04:38;;;;;;;5.25;2.90;;;21.10;64.50;;;;;;5054172;28;20029;-18
2022/07/11 00:07:04;;;;;;;5.13;2.90;;;21.10;64.60;;;;;;5054466;28;20021;-16
2022/07/11 00:09:31;;;;;;;4.00;2.60;;;21.00;64.80;;;;;;5055317;28;20017;-17
2022/07/11 00:11:58;;;;;;;4.53;2.75;;;21.10;64.70;;;;;;5054189;28;20227;-17
2022/07/11 00:14:24;;;;;;;4.20;2.90;;;21.00;65.30;;;;;;5054216;28;20036;-18
2022/07/11 00:16:53;;;;;;;4.45;2.83;;;21.00;65.00;;;;;;5054076;28;20032;-17
2022/07/11 00:19:19;;;;;;;4.72;2.65;;;20.90;65.00;;;;;;5054010;28;20024;-19
2022/07/11 00:21:47;;;;;;;5.00;2.90;;;20.90;64.90;;;;;;5054259;28;20025;-18
2022/07/11 00:24:13;;;;;;;3.97;3.15;;;20.90;64.90;;;;;;5053701;28;20032;-19
2022/07/11 00:26:39;;;;;;;3.25;2.65;;;20.90;65.30;;;;;;5053897;28;20025;-19
2022/07/11 00:29:06;;;;;;;4.40;3.25;;;20.90;65.30;;;;;;5053871;28;20444;-18
2022/07/11 00:31:32;;;;;;;4.95;3.40;;;20.80;65.60;;;;;;5053721;28;20025;-17
2022/07/11 00:33:59;;;;;;;6.55;3.97;;;20.80;66.80;;;;;;5053795;28;20043;-19
2022/07/11 00:36:25;;;;;;;5.72;3.25;;;20.70;66.80;;;;;;5053518;28;20464;-16
2022/07/11 00:38:51;;;;;;;4.07;3.28;;;20.70;67.30;;;;;;5054233;28;20029;-19
2022/07/11 00:41:18;;;;;;;4.20;3.17;;;20.60;67.60;;;;;;5054146;28;20116;-17
2022/07/11 00:43:53;;;;;;;4.03;3.10;;;20.60;67.20;;;;;;5053582;28;20025;-20
2022/07/11 00:46:20;;;;;;;6.57;3.20;;;20.60;67.30;;;;;;5053211;28;20036;-19
2022/07/11 00:48:46;;;;;;;6.88;3.88;;;20.50;67.10;;;;;;5053871;28;20021;-18
2022/07/11 00:51:12;;;;;;;5.32;3.10;;;20.50;67.40;;;;;;5053403;28;20036;-18
2022/07/11 00:53:40;;;;;;;4.88;3.53;;;20.50;67.30;;;;;;5053378;28;20380;-17
2022/07/11 00:56:07;;;;;;;4.70;3.40;;;20.40;67.40;;;;;;5052184;28;20025;-19
2022/07/11 00:58:34;;;;;;;6.55;4.03;;;20.40;67.50;;;;;;5051954;28;20483;-19
2022/07/11 01:01:01;;;;;;;4.45;3.40;;;20.40;67.60;;;;;;5053242;28;20037;-18
2022/07/11 01:03:27;;;;;;;3.58;2.90;;;20.40;67.40;;;;;;5053590;28;20021;-18
2022/07/11 01:05:53;;;;;;;4.60;3.65;;;20.40;67.40;;;;;;5053177;28;20033;-19
2022/07/11 01:08:20;;;;;;;4.03;3.28;;;20.40;67.50;;;;;;5053336;28;20090;-19
2022/07/11 01:10:46;;;;;;;5.55;3.65;;;20.40;67.50;;;;;;5053182;28;20423;-19
2022/07/11 01:13:12;;;;;;;6.03;3.60;;;20.30;67.70;;;;;;5053452;28;20037;-18
2022/07/11 01:15:38;;;;;;;3.83;2.78;;;20.30;68.00;;;;;;5053198;28;20516;-18
2022/07/11 01:18:04;;;;;;;5.38;3.13;;;20.30;68.00;;;;;;5053078;28;20451;-18
2022/07/11 01:20:30;;;;;;;4.53;3.40;;;20.20;68.00;;;;;;5053116;28;20036;-17
2022/07/11 01:23:05;;;;;;;5.30;3.47;;;20.20;67.90;;;;;;5053622;28;20566;-19
2022/07/11 01:25:32;;;;;;;6.60;3.95;;;20.20;68.20;;;;;;5052941;28;20025;-19
2022/07/11 01:28:03;;;;;;;5.82;3.10;;;20.10;68.10;;;;;;5053325;28;20056;-18
2022/07/11 01:30:31;;;;;;;4.63;2.90;;;20.10;68.40;;;;;;5052427;28;20224;-17
2022/07/11 01:32:58;;;;;;;6.35;3.13;;;20.10;68.10;;;;;;5052952;28;20029;-18
2022/07/11 01:35:26;;;;;;;4.18;3.33;;;20.10;68.10;;;;;;5053367;28;20432;-19
2022/07/11 01:37:52;;;;;;;4.75;3.15;;;20.10;68.20;;;;;;5057354;28;20016;-18
2022/07/11 01:40:19;;;;;;;5.00;3.15;;;20.20;68.20;;;;;;5056832;28;20468;-18
2022/07/11 01:42:46;;;;;;;6.90;4.25;;;20.10;68.20;;;;;;5057360;28;20028;-18
2022/07/11 01:45:12;;;;;;;4.13;3.22;;;20.10;68.40;;;;;;5057210;28;20099;-17
2022/07/11 01:47:39;;;;;;;5.63;3.38;;;20.20;68.30;;;;;;5055604;28;20119;-19
2022/07/11 01:50:06;;;;;;;4.18;3.30;;;20.20;68.30;;;;;;5056944;28;20021;-19
2022/07/11 01:52:32;;;;;;;6.18;3.45;;;20.30;68.10;;;;;;5056553;28;20037;-18
2022/07/11 01:54:58;;;;;;;4.82;3.05;;;20.20;68.20;;;;;;5056753;28;20503;-17
2022/07/11 01:57:23;;;;;;;7.32;3.53;;;20.30;68.00;;;;;;5056680;28;20028;-17
2022/07/11 01:59:49;;;;;;;4.40;2.88;;;20.30;68.10;;;;;;5056615;28;20051;-19
2022/07/11 02:02:16;;;;;;;4.82;4.05;;;20.40;68.20;;;;;;5056791;28;20036;-18
2022/07/11 02:04:42;;;;;;;7.68;4.10;;;20.40;68.50;;;;;;5055316;28;20024;-18
2022/07/11 02:07:09;;;;;;;5.63;3.20;;;20.40;68.40;;;;;;5057222;28;20369;-17
2022/07/11 02:09:35;;;;;;;8.32;4.05;;;20.40;68.40;;;;;;5056501;28;20025;-18
2022/07/11 02:12:01;;;;;;;6.40;4.25;;;20.40;68.80;;;;;;5056727;28;20032;-16
2022/07/11 02:14:27;;;;;;;5.25;3.67;;;20.40;69.10;;;;;;5056527;28;20029;-17
2022/07/11 02:16:53;;;;;;;4.70;3.17;;;20.40;69.50;;;;;;5056255;28;20044;-17
2022/07/11 02:19:19;;;;;;;5.28;4.00;;;20.40;68.80;;;;;;5056259;28;20035;-16
2022/07/11 02:21:45;;;;;;;5.82;3.50;;;20.40;69.40;;;;;;5056591;28;20032;-16
2022/07/11 02:24:11;;;;;;;6.47;4.07;;;20.40;69.50;;;;;;5056332;28;20029;-16
2022/07/11 02:26:37;;;;;;;5.55;3.60;;;20.40;69.40;;;;;;5055977;28;20480;-18
2022/07/11 02:29:03;;;;;;;6.65;3.47;;;20.40;69.40;;;;;;5056023;28;20036;-17
2022/07/11 02:31:28;;;;;;;5.88;3.92;;;20.40;69.70;;;;;;5056546;28;20037;-17
2022/07/11 02:33:54;;;;;;;7.07;3.80;;;20.40;69.60;;;;;;5054862;28;20029;-18
2022/07/11 02:36:20;;;;;;;4.15;3.58;;;20.40;70.10;;;;;;5056086;28;20051;-18
2022/07/11 02:38:46;;;;;;;7.47;4.05;;;20.30;69.90;;;;;;5056543;28;20435;-19
2022/07/11 02:41:12;;;;;;;6.45;4.03;;;20.40;70.30;;;;;;5056152;28;20060;-17
2022/07/11 02:43:38;;;;;;;7.53;4.75;;;20.40;70.40;;;;;;5055883;28;20400;-18
2022/07/11 02:46:05;;;;;;;4.50;3.72;;;20.40;70.80;;;;;;5054452;28;20029;-18
2022/07/11 02:48:31;;;;;;;5.57;4.45;;;20.30;70.80;;;;;;5056355;28;20040;-19
2022/07/11 02:50:57;;;;;;;7.28;4.63;;;20.30;70.70;;;;;;5055724;28;20534;-18
2022/07/11 02:53:23;;;;;;;7.38;4.43;;;20.30;71.10;;;;;;5055728;28;20029;-18
2022/07/11 02:55:49;;;;;;;6.28;4.40;;;20.30;71.00;;;;;;5055883;28;20036;-17
2022/07/11 02:58:15;;;;;;;8.30;4.82;;;20.30;71.00;;;;;;5055414;28;20028;-17
2022/07/11 03:00:41;;;;;;;7.47;4.45;;;20.30;71.60;;;;;;5055572;28;20027;-18
2022/07/11 03:03:07;;;;;;;5.35;3.80;;;20.30;70.90;;;;;;5055866;28;20048;-19
2022/07/11 03:05:33;;;;;;;6.82;4.03;;;20.30;70.70;;;;;;5056048;28;20097;-18
2022/07/11 03:07:59;;;;;;;5.78;3.70;;;20.30;70.80;;;;;;5056064;28;20029;-18
2022/07/11 03:10:25;;;;;;;5.88;4.10;;;20.30;70.40;;;;;;5055162;28;20492;-18
2022/07/11 03:12:51;;;;;;;8.35;4.35;;;20.40;70.60;;;;;;5055396;28;20049;-18
2022/07/11 03:15:17;;;;;;;8.38;3.90;;;20.30;70.50;;;;;;5055198;28;20484;-18
2022/07/11 03:17:43;;;;;;;8.45;4.50;;;20.40;70.50;;;;;;5055492;28;20021;-19
2022/07/11 03:20:10;;;;;;;5.90;4.18;;;20.40;70.70;;;;;;5055521;28;20028;-18
2022/07/11 03:22:37;;;;;;;5.72;3.67;;;20.40;70.20;;;;;;5054954;28;20472;-19
2022/07/11 03:25:05;;;;;;;6.00;3.83;;;20.40;70.00;;;;;;5055434;28;20032;-18
2022/07/11 03:27:32;;;;;;;5.25;4.10;;;20.40;69.90;;;;;;5055217;28;20091;-19
2022/07/11 03:29:58;;;;;;;5.07;3.65;;;20.50;69.70;;;;;;5054831;28;20132;-17
2022/07/11 03:32:24;;;;;;;5.68;4.13;;;20.40;69.70;;;;;;5054755;28;20167;-19
2022/07/11 03:37:34;;;;;;;7.05;3.80;;;20.50;69.40;;;;;;5055347;28;20079;-19
2022/07/11 03:40:00;;;;;;;7.30;3.90;;;20.50;69.50;;;;;;5055424;28;20469;-17
2022/07/11 03:42:27;;;;;;;6.82;4.00;;;20.50;69.50;;;;;;5054640;28;20025;-18
2022/07/11 03:44:53;;;;;;;5.32;3.67;;;20.50;69.90;;;;;;5054869;28;20051;-18
2022/07/11 03:47:20;;;;;;;6.97;4.30;;;20.40;69.30;;;;;;5053297;28;20492;-17
2022/07/11 03:49:47;;;;;;;5.93;4.13;;;20.40;69.40;;;;;;5053427;28;20108;-18
2022/07/11 03:52:14;;;;;;;6.75;3.70;;;20.40;69.40;;;;;;5054877;28;20068;-18
2022/07/11 03:54:40;;;;;;;5.20;3.80;;;20.40;69.10;;;;;;5053349;28;20025;-17
2022/07/11 03:57:06;;;;;;;7.45;3.97;;;20.40;69.50;;;;;;5054449;28;20051;-18
2022/07/11 03:59:32;;;;;;;5.25;3.58;;;20.40;69.20;;;;;;5053920;28;20115;-17
2022/07/11 04:01:58;;;;;;;6.38;4.18;;;20.40;68.90;;;;;;5053103;28;20108;-18
2022/07/11 04:04:24;;;;;;;7.53;4.25;;;20.40;69.00;;;;;;5054071;28;20025;-17
2022/07/11 04:06:49;;;;;;;6.05;3.80;;;20.40;68.90;;;;;;5054296;28;20029;-17
2022/07/11 04:09:15;;;;;;;7.40;3.60;;;20.40;69.20;;;;;;5054497;28;20036;-18
2022/07/11 04:11:41;;;;;;;8.48;3.50;;;20.40;68.80;;;;;;5054348;28;20025;-18
2022/07/11 04:14:07;;;;;;;5.57;3.40;;;20.40;68.80;;;;;;5052896;28;20033;-17
2022/07/11 04:16:33;;;;;;;6.30;3.83;;;20.40;68.50;;;;;;5054055;28;20021;-18
2022/07/11 04:18:58;;;;;;;6.97;3.70;;;20.40;68.90;;;;;;5052699;28;20451;-19
2022/07/11 04:21:26;;;;;;;8.05;3.45;;;20.40;68.30;;;;;;5052850;28;20056;-18
2022/07/11 04:23:52;;;;;;;5.00;3.30;;;20.40;68.30;;;;;;5054213;28;20091;-16
2022/07/11 04:26:18;;;;;;;5.57;3.50;;;20.50;67.90;;;;;;5053613;28;20037;-16
2022/07/11 04:28:44;;;;;;;5.00;3.20;;;20.50;67.60;;;;;;5054163;28;20119;-18
2022/07/11 04:31:10;;;;;;;6.93;3.60;;;20.50;67.30;;;;;;5053756;28;20484;-18
2022/07/11 04:33:36;;;;;;;7.10;3.25;;;20.50;67.10;;;;;;5054128;28;20060;-15
2022/07/11 04:36:03;;;;;;;5.85;3.05;;;20.60;66.70;;;;;;5053831;28;20044;-17
2022/07/11 04:38:28;;;;;;;5.90;3.08;;;20.60;66.30;;;;;;5054127;28;20023;-16
2022/07/11 04:40:54;;;;;;;4.85;3.47;;;20.70;66.10;;;;;;5054008;28;20029;-18
2022/07/11 04:43:20;;;;;;;4.65;3.33;;;20.70;65.50;;;;;;5053900;28;20449;-19
2022/07/11 04:45:46;;;;;;;3.72;3.08;;;20.80;65.40;;;;;;5053732;28;20056;-18
2022/07/11 04:48:12;;;;;;;4.65;2.92;;;20.90;64.80;;;;;;5053870;28;20444;-17
2022/07/11 04:50:38;;;;;;;6.55;3.33;;;21.00;64.70;;;;;;5053466;28;20496;-17
2022/07/11 04:53:04;;;;;;;5.60;3.00;;;21.00;64.50;;;;;;5053704;28;20096;-16
2022/07/11 04:55:30;;;;;;;3.45;2.97;;;21.10;63.90;;;;;;5054263;28;20053;-17
2022/07/11 04:57:56;;;;;;;5.05;3.28;;;21.20;63.50;;;;;;5053735;28;20025;-16
2022/07/11 05:00:21;;;;;;;4.65;3.08;;;21.30;62.90;;;;;;5053372;28;20420;-18
2022/07/11 05:02:47;;;;;;;5.05;3.22;;;21.40;62.00;;;;;;5053346;28;20025;-18
2022/07/11 05:05:13;;;;;;;5.10;2.97;;;21.50;62.60;;;;;;5053265;28;20025;-18
2022/07/11 05:07:39;;;;;;;3.22;2.90;;;21.60;62.20;;;;;;5053454;28;20538;-17
2022/07/11 05:10:06;;;;;;;4.63;3.20;;;21.70;61.50;;;;;;5052577;28;20021;-18
2022/07/11 05:12:32;;;;;;;3.53;2.80;;;21.80;59.90;;;;;;5051715;28;20063;-18
2022/07/11 05:15:01;;;;;;;4.45;2.70;;;21.90;60.40;;;;;;5053299;28;20036;-17
2022/07/11 05:17:27;;;;;;;4.10;2.75;;;21.90;60.10;;;;;;5053384;28;20390;-17
2022/07/11 05:19:53;;;;;;;3.03;2.45;;;22.10;60.10;;;;;;5053381;28;20083;-19
2022/07/11 05:22:19;;;;;;;3.65;2.70;;;22.30;59.70;;;;;;5052929;28;20032;-19
2022/07/11 05:24:45;;;;;;;5.53;2.63;;;22.40;59.20;;;;;;5053034;28;20388;-18
2022/07/11 05:27:11;;;;;;;5.20;3.00;;;22.50;58.60;;;;;;5052068;28;20552;-18
2022/07/11 05:29:36;;;;;;;4.53;3.15;;;22.50;58.20;;;;;;5052716;28;20056;-19
2022/07/11 05:32:02;;;;;;;3.28;2.90;;;22.50;58.00;;;;;;5052834;28;20032;-17
2022/07/11 05:34:28;;;;;;;3.47;2.80;;;22.50;57.80;;;;;;5052839;28;20029;-19
2022/07/11 05:36:54;;;;;;;5.32;2.80;;;22.50;58.10;;;;;;5051682;28;20059;-18
2022/07/11 05:39:20;;;;;;;7.50;3.25;;;22.50;58.30;;;;;;5052882;28;20025;-18
2022/07/11 05:41:46;;;;;;;6.50;2.92;;;22.50;57.80;;;;;;5052866;28;20071;-18
2022/07/11 05:44:12;;;;;;;3.58;2.97;;;22.60;57.70;;;;;;5052838;28;20123;-18
2022/07/11 05:46:39;;;;;;;4.35;3.00;;;22.60;57.40;;;;;;5052467;28;20119;-17
2022/07/11 05:49:10;;;;;;;3.92;2.72;;;22.60;57.50;;;;;;5052777;28;20029;-18
2022/07/11 05:51:38;;;;;;;3.42;2.70;;;22.60;57.20;;;;;;5053098;28;20071;-15
2022/07/11 05:54:04;;;;;;;5.82;2.65;;;22.60;57.70;;;;;;5052850;28;20025;-17
2022/07/11 05:56:30;;;;;;;5.18;2.90;;;22.60;57.20;;;;;;5052785;28;20020;-16
2022/07/11 05:58:57;;;;;;;3.63;3.00;;;22.60;57.50;;;;;;5053054;28;20029;-16
2022/07/11 06:01:23;;;;;;;4.38;2.85;;;22.60;57.00;;;;;;5053424;28;20079;-17
2022/07/11 06:03:50;;;;;;;3.58;2.58;;;22.70;57.40;;;;;;5052999;28;20017;-18
2022/07/11 06:06:17;;;;;;;3.17;2.78;;;22.80;57.70;;;;;;5052762;28;20389;-17
2022/07/11 06:08:44;;;;;;;6.03;3.10;;;22.80;56.70;;;;;;5052698;28;20037;-17
2022/07/11 06:11:14;;;;;;;3.78;2.60;;;22.90;57.20;;;;;;5052605;28;20029;-15
2022/07/11 06:13:42;;;;;;;3.92;2.83;;;22.90;56.80;;;;;;5052549;28;20059;-17
2022/07/11 06:16:09;;;;;;;3.72;2.80;;;22.90;56.40;;;;;;5052470;28;20064;-18
2022/07/11 06:18:37;;;;;;;3.30;3.00;;;22.90;55.90;;;;;;5052305;28;20028;-17
2022/07/11 06:21:04;;;;;;;3.90;2.65;;;22.90;56.20;;;;;;5053386;28;20021;-19
2022/07/11 06:23:31;;;;;;;3.83;2.75;;;22.90;56.20;;;;;;5056481;28;20452;-18
2022/07/11 06:25:57;;;;;;;4.30;2.58;;;23.00;56.30;;;;;;5056177;28;20037;-18
2022/07/11 06:28:24;;;;;;;4.45;2.70;;;23.00;55.40;;;;;;5055991;28;20032;-17
2022/07/11 06:30:50;;;;;;;4.60;2.72;;;23.00;55.40;;;;;;5055976;28;20057;-17
2022/07/11 06:33:17;;;;;;;3.80;2.95;;;23.10;55.60;;;;;;5056099;28;20112;-16
2022/07/11 06:35:44;;;;;;;5.25;2.60;;;23.10;55.40;;;;;;5056033;28;20021;-18
2022/07/11 06:38:10;;;;;;;5.35;2.75;;;23.10;55.20;;;;;;5056345;28;20040;-17
2022/07/11 06:40:36;;;;;;;3.33;2.55;;;23.10;55.50;;;;;;5056087;28;20024;-17
2022/07/11 06:43:02;;;;;;;4.00;2.50;;;23.20;54.70;;;;;;5056382;28;20021;-17
2022/07/11 06:45:28;;;;;;;5.72;2.75;;;23.30;55.90;;;;;;5055981;28;20021;-17
2022/07/11 06:47:54;;;;;;;5.43;2.65;;;23.50;55.70;;;;;;5055773;28;20040;-17
2022/07/11 06:50:20;;;;;;;3.60;2.60;;;23.80;55.10;;;;;;5055579;28;20081;-17
2022/07/11 06:52:47;;;;;;;4.18;2.47;;;24.20;53.20;;;;;;5055736;28;20107;-19
2022/07/11 06:55:13;;;;;;;5.78;2.65;;;24.30;52.30;;;;;;5055628;28;20029;-17
2022/07/11 06:57:39;;;;;;;6.30;2.45;;;24.40;52.70;;;;;;5055666;28;20101;-19
2022/07/11 07:00:07;;;;;;;3.67;2.63;;;24.70;52.30;;;;;;5055529;28;20112;-17
2022/07/11 07:02:33;;;;;;;4.95;2.40;;;24.90;50.80;;;;;;5055339;28;20445;-18
2022/07/11 07:04:59;;;;;;;4.32;2.63;;;25.10;50.70;;;;;;5055965;28;20540;-17
2022/07/11 07:07:27;;;;;;;3.20;2.70;;;25.30;51.40;;;;;;5055405;28;20431;-18
2022/07/11 07:09:54;;;;;;;4.18;2.42;;;25.40;49.70;;;;;;5055415;28;20025;-16
2022/07/11 07:12:22;;;;;;;3.85;2.53;;;25.50;49.80;;;;;;5055463;28;20028;-17
2022/07/11 07:14:49;;;;;;;3.25;2.30;;;25.50;49.80;;;;;;5055320;28;20025;-17
2022/07/11 07:17:16;;;;;;;5.45;2.78;;;25.40;50.00;;;;;;5055215;28;20021;-18
2022/07/11 07:19:43;;;;;;;2.80;2.40;;;25.40;50.20;;;;;;5055518;28;20083;-15
2022/07/11 07:22:09;;;;;;;3.22;2.50;;;25.30;49.80;;;;;;5055287;28;20083;-17
2022/07/11 07:24:38;;;;;;;3.35;2.60;;;25.40;50.60;;;;;;5055009;28;20029;-16
2022/07/11 07:27:05;;;;;;;5.60;2.78;;;25.50;50.20;;;;;;5055218;28;20366;-17
2022/07/11 07:29:32;;;;;;;4.10;2.47;;;25.70;50.70;;;;;;5053552;28;20631;-17
2022/07/11 07:31:59;;;;;;;3.55;2.42;;;25.80;50.20;;;;;;5055205;28;20068;-16
2022/07/11 07:34:26;;;;;;;3.33;2.70;;;25.90;50.40;;;;;;5052645;28;20146;-16
2022/07/11 07:40:14;;;;;;;4.93;2.58;;;26.10;50.00;;;;;;5054961;28;20024;-17
2022/07/11 07:42:40;;;;;;;5.40;2.50;;;26.30;49.10;;;;;;5053544;28;20472;-17
2022/07/11 07:45:06;;;;;;;3.17;2.17;;;26.40;48.50;;;;;;5055747;28;20025;-17
2022/07/11 07:47:34;;;;;;;4.10;2.45;;;26.60;48.70;;;;;;5054910;28;20087;-17
2022/07/11 07:50:00;;;;;;;4.88;2.53;;;26.80;48.70;;;;;;5054661;28;20032;-18
2022/07/11 07:52:26;;;;;;;3.42;2.45;;;27.00;48.30;;;;;;5054501;28;20100;-18
2022/07/11 07:54:52;;;;;;;2.47;2.20;;;26.90;48.10;;;;;;5054917;28;20040;-16
2022/07/11 07:57:18;;;;;;;3.50;2.60;;;27.00;48.10;;;;;;5054543;28;20032;-15
2022/07/11 07:59:44;;;;;;;3.75;2.60;;;27.00;47.70;;;;;;5054834;28;20041;-17
2022/07/11 08:02:10;;;;;;;2.50;2.25;;;27.10;47.70;;;;;;5054458;28;20025;-17
2022/07/11 08:04:36;;;;;;;2.50;2.30;;;27.20;47.80;;;;;;5054139;28;20025;-16
2022/07/11 08:07:02;;;;;;;4.82;2.63;;;27.30;47.90;;;;;;5054240;28;20039;-17
2022/07/11 08:09:28;;;;;;;3.63;2.60;;;27.50;47.30;;;;;;5054250;28;20028;-17
2022/07/11 08:11:55;;;;;;;4.53;2.58;;;27.40;46.50;;;;;;5054465;28;20362;-16
2022/07/11 08:14:22;;;;;;;3.58;2.60;;;27.40;47.40;;;;;;5054030;28;20021;-16
2022/07/11 08:16:48;;;;;;;5.55;2.80;;;27.60;47.70;;;;;;5054349;28;20025;-17
2022/07/11 08:19:14;;;;;;;5.10;2.38;;;27.70;46.70;;;;;;5054364;28;20025;-16
2022/07/11 08:21:40;;;;;;;4.40;2.30;;;27.90;47.00;;;;;;5054059;28;20033;-17
2022/07/11 08:24:06;;;;;;;4.85;2.80;;;28.30;46.60;;;;;;5053984;28;20082;-18
2022/07/11 08:26:33;;;;;;;5.32;2.58;;;28.70;45.50;;;;;;5054003;28;20040;-17
2022/07/11 08:29:03;;;;;;;4.35;2.60;;;28.80;45.70;;;;;;5053966;28;20107;-17
2022/07/11 08:31:30;;;;;;;5.32;2.45;;;29.00;44.40;;;;;;5053895;28;20575;-16
2022/07/11 08:33:58;;;;;;;6.40;2.75;;;29.20;44.80;;;;;;5053831;28;20029;-18
2022/07/11 08:36:24;;;;;;;4.53;2.90;;;29.30;45.20;;;;;;5053586;28;20029;-17
2022/07/11 08:38:49;;;;;;;5.68;2.70;;;29.50;44.40;;;;;;5053734;28;20037;-18
2022/07/11 08:41:18;;;;;;;3.75;2.75;;;29.80;43.60;;;;;;5053952;28;20086;-18
2022/07/11 08:43:46;;;;;;;5.95;3.00;;;29.90;43.10;;;;;;5053955;28;20372;-17
2022/07/11 08:46:14;;;;;;;5.75;2.92;;;29.80;43.80;;;;;;5053460;28;20032;-17
2022/07/11 08:48:42;;;;;;;3.80;2.50;;;29.90;43.80;;;;;;5053439;28;20033;-17
2022/07/11 08:51:08;;;;;;;5.78;2.55;;;30.00;43.90;;;;;;5052686;28;20099;-17
2022/07/11 08:53:44;;;;;;;6.47;2.55;;;30.40;43.10;;;;;;5053785;28;20036;-16
2022/07/11 08:56:17;;;;;;;4.28;2.63;;;30.50;43.00;;;;;;5053873;28;20025;-16
2022/07/11 08:58:47;;;;;;;2.47;2.28;;;30.50;41.90;;;;;;5053478;28;20029;-16
2022/07/11 09:01:16;;;;;;;3.60;2.40;;;30.20;42.70;;;;;;5053596;28;20113;-17
2022/07/11 09:03:44;;;;;;;5.68;2.42;;;30.40;42.80;;;;;;5053305;28;20062;-16
2022/07/11 09:06:11;;;;;;;2.60;2.38;;;30.60;43.00;;;;;;5053398;28;20037;-17
2022/07/11 09:08:38;;;;;;;4.55;2.53;;;30.60;42.80;;;;;;5053648;28;20107;-16
2022/07/11 09:11:04;;;;;;;4.82;2.30;;;30.90;42.70;;;;;;5053245;28;20037;-16
2022/07/11 09:13:31;;;;;;;2.60;2.03;;;31.20;42.20;;;;;;5053627;28;20411;-16
2022/07/11 09:16:05;;;;;;;4.40;2.28;;;31.70;41.90;;;;;;5053633;28;20055;-16
2022/07/11 09:18:35;;;;;;;5.75;2.40;;;32.20;40.00;;;;;;5053149;28;20388;-16
2022/07/11 09:26:42;;;;;;;5.35;2.53;;;32.00;40.70;;;;;;5053053;28;20130;-17
2022/07/11 09:29:11;;;;;;;6.03;2.78;;;32.00;40.70;;;;;;5052797;28;20526;-17
2022/07/11 09:31:39;;;;;;;3.75;2.40;;;31.70;40.60;;;;;;5052949;28;20388;-18
2022/07/11 09:34:23;;;;;;;3.88;2.30;;;31.50;41.20;;;;;;5067827;28;20040;-17
2022/07/11 09:36:54;;;;;;;4.00;2.63;;;31.80;40.80;;;;;;5052977;28;20025;-16
2022/07/11 09:39:30;;;;;;;4.90;2.42;;;31.90;40.50;;;;;;5053261;28;20033;-18
2022/07/11 09:41:57;;;;;;;6.65;2.50;;;32.30;39.40;;;;;;5053269;28;20051;-17
2022/07/11 09:44:28;;;;;;;5.97;3.08;;;32.50;40.10;;;;;;5051456;28;20028;-16
2022/07/11 09:46:56;;;;;;;8.40;2.70;;;32.40;39.60;;;;;;5053074;28;20037;-16
2022/07/11 09:49:49;;;;;;;4.68;2.65;;;32.20;39.30;;;;;;5053140;28;20061;-17
2022/07/11 09:52:17;;;;;;;5.72;2.50;;;31.50;40.40;;;;;;5050763;28;20044;-17
2022/07/11 09:54:54;;;;;;;6.07;2.25;;;31.30;41.40;;;;;;5053246;28;20021;-19
2022/07/11 09:57:29;;;;;;;8.20;2.80;;;31.10;41.80;;;;;;5054649;28;20036;-17
2022/07/11 09:59:56;;;;;;;4.25;2.67;;;31.30;41.80;;;;;;5057037;28;20017;-17
2022/07/11 10:02:22;;;;;;;3.53;2.60;;;31.30;41.90;;;;;;5056520;28;20068;-17
2022/07/11 10:04:50;;;;;;;3.08;2.35;;;31.50;41.80;;;;;;5056658;28;20025;-17
2022/07/11 10:07:16;;;;;;;6.03;2.70;;;31.90;41.50;;;;;;5056517;28;20476;-17
2022/07/11 10:09:43;;;;;;;3.28;2.67;;;31.80;40.20;;;;;;5056562;28;20027;-17
2022/07/11 10:12:09;;;;;;;5.35;2.53;;;31.60;41.40;;;;;;5056807;28;20099;-17
2022/07/11 10:14:37;;;;;;;3.47;2.35;;;31.70;41.50;;;;;;5056605;28;20476;-17
2022/07/11 10:17:34;;;;;;;5.13;2.50;;;32.20;41.30;;;;;;5056365;28;20031;-16
2022/07/11 10:20:37;;;;;;;4.10;2.38;;;32.80;39.70;;;;;;5056355;28;20111;-16
2022/07/11 10:23:15;;;;;;;4.35;2.45;;;33.40;39.10;;;;;;5056772;28;20025;-16
2022/07/11 10:25:50;;;;;;;6.68;2.70;;;33.90;38.30;;;;;;5056507;28;20029;-17
2022/07/11 10:28:32;;;;;;;2.88;2.40;;;34.10;37.70;;;;;;5055938;28;20068;-16
2022/07/11 10:30:59;;;;;;;2.97;2.13;;;33.40;38.10;;;;;;5056685;28;20128;-18
2022/07/11 10:33:28;;;;;;;3.95;2.20;;;33.30;39.30;;;;;;5056142;28;20033;-18
2022/07/11 10:35:54;;;;;;;3.25;2.10;;;33.70;38.20;;;;;;5056273;28;20021;-17
2022/07/11 10:38:23;;;;;;;4.00;2.20;;;33.70;38.20;;;;;;5056285;28;20029;-16
2022/07/11 10:40:58;;;;;;;3.03;2.10;;;33.60;38.10;;;;;;5056145;28;20055;-17
2022/07/11 10:43:40;;;;;;;3.30;1.80;;;33.60;38.00;;;;;;5056600;28;20024;-17
2022/07/11 10:46:06;;;;;;;2.45;1.88;;;33.90;37.50;;;;;;5056244;28;20507;-16
2022/07/11 10:48:55;;;;;;;3.63;2.05;;;34.20;37.50;;;;;;5054405;28;20115;-16
2022/07/11 10:51:42;;;;;;;3.70;2.00;;;34.40;37.40;;;;;;5056449;28;20096;-17
2022/07/11 10:54:28;;;;;;;4.80;2.00;;;34.50;36.90;;;;;;5056099;28;20021;-17
2022/07/11 10:57:59;;;;;;;4.72;2.15;;;34.60;36.70;;;;;;5055698;28;20082;-17
2022/07/11 11:00:25;;;;;;;4.07;2.10;;;34.30;37.20;;;;;;4994000;28;20169;-17
2022/07/11 11:03:08;;;;;;;2.45;1.52;;;34.20;37.20;;;;;;4994448;28;20034;-16
2022/07/11 11:05:44;;;;;;;5.60;2.65;;;34.50;37.10;;;;;;4994259;28;20037;-16
2022/07/11 11:08:31;;;;;;;4.13;2.00;;;35.00;36.40;;;;;;4992890;28;20498;-18
2022/07/11 11:10:59;;;;;;;5.13;1.77;;;35.60;35.20;;;;;;4994672;28;20034;-17
2022/07/11 11:13:26;;;;;;;4.95;1.92;;;36.00;34.90;;;;;;4994454;28;20078;-16
2022/07/11 11:16:00;;;;;;;2.70;2.00;;;36.40;34.70;;;;;;4994431;28;20076;-17
2022/07/11 11:18:26;;;;;;;3.25;1.85;;;36.70;33.70;;;;;;4993745;28;20030;-17
2022/07/11 11:21:07;;;;;;;3.03;1.90;;;36.90;33.60;;;;;;4977669;28;20129;-17
2022/07/11 11:23:37;;;;;;;2.88;1.80;;;37.20;33.40;;;;;;4994233;28;20486;-17
2022/07/11 11:26:07;;;;;;;4.00;2.10;;;37.40;33.50;;;;;;4993950;28;20430;-17
2022/07/11 11:28:34;;;;;;;5.30;2.20;;;37.60;32.90;;;;;;4993673;28;20104;-16
2022/07/11 11:31:04;;;;;;;3.78;1.73;;;37.30;33.10;;;;;;4993482;28;20050;-16
2022/07/11 11:33:33;;;;;;;4.32;1.85;;;36.60;34.70;;;;;;5001882;28;20050;-16
2022/07/11 11:36:03;;;;;;;3.95;2.00;;;35.90;34.50;;;;;;5055573;28;20477;-17
2022/07/11 11:38:38;;;;;;;5.63;2.00;;;35.10;35.90;;;;;;5054981;28;20037;-17
2022/07/11 11:41:05;;;;;;;2.63;1.52;;;34.90;35.90;;;;;;5054973;28;20044;-16
2022/07/11 11:43:32;;;;;;;4.15;1.80;;;34.50;36.30;;;;;;5055109;28;20021;-17
2022/07/11 11:45:58;;;;;;;3.30;1.63;;;34.30;36.90;;;;;;5053372;28;20029;-17
2022/07/11 11:48:35;;;;;;;4.20;1.95;;;34.00;37.40;;;;;;5054591;28;20048;-16
2022/07/11 11:51:05;;;;;;;1.70;1.60;;;33.90;37.70;;;;;;5054689;28;20029;-16
2022/07/11 11:53:41;;;;;;;3.53;2.00;;;33.70;37.50;;;;;;5055751;28;20036;-15
2022/07/11 11:56:22;;;;;;;2.97;1.95;;;33.50;37.80;;;;;;5054575;28;20507;-15
2022/07/11 11:58:49;;;;;;;4.22;2.15;;;33.20;38.60;;;;;;5054851;28;20079;-16
2022/07/11 12:01:26;;;;;;;3.97;1.90;;;33.10;38.40;;;;;;5054992;28;20091;-16
2022/07/11 12:04:00;;;;;;;3.75;2.10;;;32.90;38.40;;;;;;5054458;28;20087;-15
2022/07/11 12:06:28;;;;;;;2.90;1.88;;;33.20;38.80;;;;;;5054204;28;20108;-16
2022/07/11 12:09:03;;;;;;;3.03;1.90;;;33.90;38.00;;;;;;5054650;28;20556;-17
2022/07/11 12:11:30;;;;;;;5.93;2.33;;;34.90;35.80;;;;;;5054240;28;20596;-17
2022/07/11 12:14:07;;;;;;;4.20;2.13;;;35.40;35.40;;;;;;5054872;28;20027;-17
2022/07/11 12:16:41;;;;;;;3.50;2.10;;;35.70;35.10;;;;;;5053905;28;20025;-17
2022/07/11 12:19:12;;;;;;;2.65;1.88;;;35.80;34.60;;;;;;5053828;28;20025;-17
2022/07/11 12:21:40;;;;;;;5.15;2.10;;;35.50;35.00;;;;;;5054460;28;20052;-15
2022/07/11 12:24:10;;;;;;;3.47;1.75;;;35.30;34.90;;;;;;5054221;28;20064;-17
2022/07/11 12:26:38;;;;;;;5.05;1.92;;;35.10;35.30;;;;;;5054005;28;20028;-16
2022/07/11 12:29:22;;;;;;;4.63;2.00;;;34.70;35.60;;;;;;5054154;28;20052;-16
2022/07/11 12:31:59;;;;;;;5.53;1.80;;;34.60;35.90;;;;;;5053879;28;20112;-16
2022/07/11 12:34:31;;;;;;;4.22;1.90;;;34.50;36.20;;;;;;5053846;28;20075;-16
2022/07/11 12:37:06;;;;;;;4.45;2.20;;;34.80;36.90;;;;;;5054157;28;20111;-16
2022/07/11 12:39:37;;;;;;;6.55;2.08;;;35.50;35.20;;;;;;5054076;28;20028;-16
2022/07/11 12:42:22;;;;;;;5.60;1.77;;;36.10;35.00;;;;;;5053726;28;20488;-16
2022/07/11 12:45:08;;;;;;;4.63;1.70;;;36.20;34.40;;;;;;5053716;28;20032;-16
2022/07/11 12:47:39;;;;;;;5.70;1.83;;;36.00;34.50;;;;;;5053799;28;20033;-16
2022/07/11 12:50:13;;;;;;;3.97;2.10;;;35.60;34.90;;;;;;5053770;28;20087;-18
2022/07/11 12:52:44;;;;;;;5.45;2.00;;;35.40;34.70;;;;;;5054126;28;20079;-15
2022/07/11 12:55:11;;;;;;;4.90;2.10;;;34.90;35.30;;;;;;5053540;28;20021;-19
2022/07/11 12:57:38;;;;;;;6.50;2.22;;;34.30;36.30;;;;;;5053689;28;20025;-18
2022/07/11 13:00:16;;;;;;;5.57;2.00;;;33.90;37.00;;;;;;5053655;28;20499;-18
2022/07/11 13:02:49;;;;;;;5.32;1.90;;;33.50;37.80;;;;;;5053311;28;20021;-18
2022/07/11 13:05:16;;;;;;;7.93;2.10;;;33.20;38.20;;;;;;5053655;28;20029;-16
2022/07/11 13:10:50;;;;;;;5.68;1.95;;;33.00;39.60;;;;;;5053386;28;20554;-16